Time;durP1;ratioP1;P1;durP2;ratioP2;P2;SDS_P1;SDS_P2;PMS_P1;PMS_P2;Temp;Humidity;BMP_temperature;BMP_pressure;BME280_temperature;BME280_humidity;BME280_pressure;Samples;Min_cycle;Max_cycle;Signal;HPM_P1;HPM_P2
2021/11/11 00:04:39;;;;;;;47.40;24.70;;;;;;;4.74;100.00;102284.59;10549767;28;20451;-80
2021/11/11 00:09:40;;;;;;;38.22;24.15;;;;;;;4.70;100.00;102287.75;10552482;28;20074;-80
2021/11/11 00:14:42;;;;;;;41.90;25.63;;;;;;;4.71;100.00;102281.00;10582532;28;20130;-80
2021/11/11 00:19:44;;;;;;;38.28;25.83;;;;;;;4.64;100.00;102283.94;10545675;28;20043;-80
2021/11/11 00:24:45;;;;;;;44.63;26.13;;;;;;;4.65;100.00;102281.50;10552935;28;20051;-80
2021/11/11 00:29:47;;;;;;;42.13;24.58;;;;;;;4.49;100.00;102284.78;10543375;28;20098;-80
2021/11/11 00:34:52;;;;;;;42.65;24.88;;;;;;;4.53;100.00;102267.91;10550531;28;20055;-80
2021/11/11 00:39:53;;;;;;;42.03;26.23;;;;;;;4.44;100.00;102265.66;10555636;28;20048;-79
2021/11/11 00:44:55;;;;;;;36.28;25.63;;;;;;;4.42;100.00;102266.34;10541544;28;20045;-79
2021/11/11 00:49:58;;;;;;;38.83;24.13;;;;;;;4.46;100.00;102268.31;10541810;28;20047;-80
2021/11/11 00:55:01;;;;;;;36.28;24.70;;;;;;;4.50;100.00;102271.16;10541026;28;20547;-79
2021/11/11 01:00:07;;;;;;;40.30;26.98;;;;;;;4.60;100.00;102277.75;10554181;28;20059;-79
2021/11/11 01:05:08;;;;;;;37.30;24.13;;;;;;;4.55;100.00;102271.47;10541993;28;20062;-80
2021/11/11 01:10:14;;;;;;;42.15;25.17;;;;;;;4.61;100.00;102273.50;10549516;28;20058;-79
2021/11/11 01:15:20;;;;;;;40.73;27.70;;;;;;;4.63;100.00;102271.94;10568577;28;20433;-79
2021/11/11 01:20:22;;;;;;;47.97;30.30;;;;;;;4.73;100.00;102274.28;10558671;28;20051;-79
2021/11/11 01:25:27;;;;;;;46.35;30.85;;;;;;;4.79;100.00;102279.78;10539222;28;20059;-79
2021/11/11 01:30:29;;;;;;;46.50;29.35;;;;;;;4.76;100.00;102287.25;10575131;28;20051;-80
2021/11/11 01:35:31;;;;;;;47.00;30.63;;;;;;;4.89;100.00;102270.97;10582472;28;20051;-79
2021/11/11 01:40:32;;;;;;;45.78;29.27;;;;;;;4.86;100.00;102266.53;10554692;28;20052;-79
2021/11/11 01:45:37;;;;;;;49.40;30.60;;;;;;;5.00;100.00;102270.81;10539931;28;20075;-80
2021/11/11 01:50:40;;;;;;;54.38;32.13;;;;;;;5.14;100.00;102260.50;10579236;28;20423;-79
2021/11/11 01:55:44;;;;;;;50.63;34.20;;;;;;;5.17;100.00;102260.69;10580326;28;20055;-80
2021/11/11 02:00:50;;;;;;;53.38;32.65;;;;;;;5.26;100.00;102253.53;10568659;28;20047;-79
2021/11/11 02:05:52;;;;;;;51.53;35.50;;;;;;;5.20;100.00;102254.06;10553807;28;20074;-79
2021/11/11 02:10:54;;;;;;;54.60;34.40;;;;;;;5.23;100.00;102245.66;10566843;28;20294;-80
2021/11/11 02:15:56;;;;;;;58.97;34.78;;;;;;;5.30;100.00;102246.09;10553106;28;20056;-80
2021/11/11 02:20:59;;;;;;;48.55;32.50;;;;;;;5.27;100.00;102239.91;10566128;28;20050;-80
2021/11/11 02:26:03;;;;;;;54.47;34.05;;;;;;;5.26;100.00;102228.75;10561134;28;20051;-80
2021/11/11 02:31:05;;;;;;;56.78;35.05;;;;;;;5.25;100.00;102231.25;10578928;28;20529;-80
2021/11/11 02:36:06;;;;;;;49.33;32.28;;;;;;;5.24;100.00;102229.47;10558193;28;20389;-80
2021/11/11 02:41:09;;;;;;;51.15;32.25;;;;;;;5.08;100.00;102235.38;10559710;28;20052;-80
2021/11/11 02:46:11;;;;;;;41.38;29.48;;;;;;;5.03;100.00;102229.97;10538822;28;20047;-80
2021/11/11 02:51:12;;;;;;;48.65;30.33;;;;;;;5.03;100.00;102224.84;10551167;28;20510;-79
2021/11/11 02:56:14;;;;;;;44.55;29.17;;;;;;;4.91;100.00;102228.34;10543595;28;20063;-80
2021/11/11 03:01:16;;;;;;;46.75;29.33;;;;;;;4.94;100.00;102219.19;10552497;28;20055;-81
2021/11/11 03:06:18;;;;;;;49.88;29.73;;;;;;;4.97;100.00;102223.59;10561835;28;20492;-80
2021/11/11 03:11:22;;;;;;;47.53;29.45;;;;;;;5.01;100.00;102229.00;10550329;28;20409;-80
2021/11/11 03:16:24;;;;;;;43.72;27.95;;;;;;;5.14;100.00;102238.28;10537426;28;20052;-79
2021/11/11 03:21:26;;;;;;;43.70;29.77;;;;;;;5.11;100.00;102232.13;10539702;28;20062;-80
2021/11/11 03:26:29;;;;;;;47.38;28.73;;;;;;;5.26;100.00;102228.75;10560704;28;20052;-80
2021/11/11 03:31:30;;;;;;;52.72;31.23;;;;;;;5.17;100.00;102222.22;10578837;28;20052;-80
2021/11/11 03:36:32;;;;;;;47.17;28.95;;;;;;;5.21;100.00;102227.59;10570101;28;20044;-80
2021/11/11 03:41:34;;;;;;;47.78;29.27;;;;;;;5.27;100.00;102225.38;10578622;28;20140;-79
2021/11/11 03:46:36;;;;;;;49.50;30.27;;;;;;;5.21;100.00;102226.72;10578051;28;20044;-80
2021/11/11 03:51:37;;;;;;;46.67;29.65;;;;;;;5.13;100.00;102230.53;10543562;28;20048;-80
2021/11/11 03:56:42;;;;;;;49.05;29.20;;;;;;;5.16;100.00;102233.25;10559470;28;20385;-80
2021/11/11 04:01:44;;;;;;;46.83;28.98;;;;;;;5.15;100.00;102228.91;10587046;28;20471;-80
2021/11/11 04:06:47;;;;;;;49.63;27.13;;;;;;;5.19;100.00;102218.06;10572008;28;20461;-80
2021/11/11 04:11:50;;;;;;;43.75;26.23;;;;;;;5.09;100.00;102228.56;10569395;28;20056;-80
2021/11/11 04:16:52;;;;;;;45.70;27.13;;;;;;;4.96;100.00;102227.84;10570595;28;20048;-80
2021/11/11 04:21:53;;;;;;;45.63;26.83;;;;;;;5.08;100.00;102237.94;10556465;28;20134;-80
2021/11/11 04:27:09;;;;;;;46.47;27.45;;;;;;;5.13;100.00;102243.34;10577710;28;20048;-80
2021/11/11 04:32:13;;;;;;;43.55;27.10;;;;;;;5.10;100.00;102235.44;10559281;28;20056;-80
2021/11/11 04:37:27;;;;;;;37.85;25.35;;;;;;;5.20;100.00;102227.50;10554053;28;20052;-80
2021/11/11 04:59:35;;;;;;;42.95;28.63;;;;;;;5.21;100.00;102231.84;10560935;28;20055;-80
2021/11/11 05:03:33;;;;;;;43.65;27.40;;;;;;;5.36;100.00;102231.88;10568341;28;20077;-79
2021/11/11 05:08:35;;;;;;;47.83;28.00;;;;;;;5.34;100.00;102236.03;10552930;28;20480;-80
2021/11/11 05:13:37;;;;;;;41.83;28.40;;;;;;;5.34;100.00;102236.91;10542010;28;20407;-79
2021/11/11 05:18:39;;;;;;;44.35;26.80;;;;;;;5.39;100.00;102235.50;10540377;28;20093;-80
2021/11/11 05:23:41;;;;;;;44.92;27.40;;;;;;;5.37;100.00;102237.09;10540320;28;20588;-80
2021/11/11 05:28:43;;;;;;;45.70;27.38;;;;;;;5.36;100.00;102234.44;10557230;28;20055;-80
2021/11/11 05:33:44;;;;;;;45.55;28.10;;;;;;;5.32;100.00;102233.34;10563656;28;20044;-80
2021/11/11 05:38:46;;;;;;;49.97;27.42;;;;;;;5.44;100.00;102239.19;10563518;28;20051;-80
2021/11/11 05:43:48;;;;;;;44.03;28.63;;;;;;;5.32;100.00;102248.75;10574258;28;20043;-79
2021/11/11 05:48:50;;;;;;;50.35;28.75;;;;;;;5.31;100.00;102247.00;10554983;28;20043;-80
2021/11/11 05:53:51;;;;;;;48.03;29.63;;;;;;;5.41;100.00;102254.44;10564692;28;20055;-79
2021/11/11 05:58:53;;;;;;;46.13;28.33;;;;;;;5.36;100.00;102265.22;10563168;28;20054;-79
2021/11/11 06:03:55;;;;;;;50.53;29.63;;;;;;;5.41;100.00;102263.81;10576051;28;20048;-79
2021/11/11 06:08:56;;;;;;;48.55;28.20;;;;;;;5.44;100.00;102257.16;10569787;28;20058;-79
2021/11/11 06:13:58;;;;;;;48.33;29.13;;;;;;;5.41;100.00;102264.69;10574118;28;20059;-79
2021/11/11 06:19:01;;;;;;;51.20;29.13;;;;;;;5.41;100.00;102292.03;10548585;28;20052;-80
2021/11/11 06:24:02;;;;;;;45.92;27.88;;;;;;;5.37;100.00;102290.97;10565006;28;20495;-79
2021/11/11 06:29:04;;;;;;;43.80;28.35;;;;;;;5.50;100.00;102290.91;10538692;28;20052;-79
2021/11/11 06:34:06;;;;;;;47.85;29.65;;;;;;;5.48;100.00;102289.91;10549603;28;20050;-79
2021/11/11 06:39:08;;;;;;;51.75;29.15;;;;;;;5.55;100.00;102293.72;10548214;28;20052;-79
2021/11/11 06:44:10;;;;;;;45.13;29.90;;;;;;;5.70;100.00;102294.63;10548951;28;20055;-79
2021/11/11 06:49:12;;;;;;;47.72;29.88;;;;;;;5.53;100.00;102301.34;10558087;28;20047;-80
2021/11/11 06:54:14;;;;;;;57.67;30.23;;;;;;;5.59;100.00;102304.25;10579889;28;20040;-79
2021/11/11 06:59:16;;;;;;;46.95;32.33;;;;;;;5.62;100.00;102301.00;10570405;28;20052;-79
2021/11/11 07:04:17;;;;;;;46.20;30.27;;;;;;;5.64;100.00;102303.66;10543364;28;20133;-79
2021/11/11 07:09:19;;;;;;;49.03;30.42;;;;;;;5.58;100.00;102293.91;10550334;28;20047;-81
2021/11/11 07:14:21;;;;;;;49.50;30.92;;;;;;;5.61;100.00;102293.19;10576472;28;20054;-80
2021/11/11 07:19:22;;;;;;;47.30;30.85;;;;;;;5.58;100.00;102302.50;10563554;28;20058;-80
2021/11/11 07:24:24;;;;;;;48.78;30.45;;;;;;;5.57;100.00;102299.84;10579431;28;20073;-80
2021/11/11 07:29:26;;;;;;;46.60;29.90;;;;;;;5.65;100.00;102292.59;10571047;28;20054;-81
2021/11/11 07:34:27;;;;;;;47.38;29.25;;;;;;;5.67;100.00;102308.94;10552315;28;20048;-80
2021/11/11 07:39:29;;;;;;;54.30;31.60;;;;;;;5.75;100.00;102306.06;10539137;28;20064;-80
2021/11/11 07:44:31;;;;;;;50.00;30.20;;;;;;;5.68;100.00;102313.31;10560262;28;20482;-80
2021/11/11 07:49:32;;;;;;;49.22;29.73;;;;;;;5.79;100.00;102307.13;10560207;28;20048;-81
2021/11/11 07:54:34;;;;;;;42.85;28.20;;;;;;;5.67;100.00;102306.38;10555860;28;20062;-81
2021/11/11 07:59:39;;;;;;;46.60;27.55;;;;;;;5.81;100.00;102313.22;10547715;28;20052;-80
2021/11/11 08:04:42;;;;;;;55.40;30.60;;;;;;;5.82;100.00;102313.31;10560634;28;20052;-80
2021/11/11 08:09:44;;;;;;;51.20;30.27;;;;;;;5.80;100.00;102307.19;10533984;28;20055;-80
2021/11/11 08:14:46;;;;;;;48.97;28.55;;;;;;;5.82;100.00;102315.88;10542880;28;20127;-80
2021/11/11 08:19:54;;;;;;;45.28;27.90;;;;;;;5.79;100.00;102308.00;10541938;28;20130;-80
2021/11/11 08:24:57;;;;;;;46.17;28.55;;;;;;;5.79;100.00;102313.13;10535320;28;20044;-80
2021/11/11 08:29:58;;;;;;;52.20;31.70;;;;;;;5.72;100.00;102308.44;10546132;28;20051;-80
2021/11/11 08:35:01;;;;;;;46.35;30.27;;;;;;;5.98;100.00;102311.66;10570746;28;20044;-79
2021/11/11 08:40:04;;;;;;;52.08;31.15;;;;;;;5.96;100.00;102314.16;10585338;28;20047;-79
2021/11/11 08:45:06;;;;;;;48.72;29.42;;;;;;;5.91;100.00;102317.22;10557659;28;20058;-79
2021/11/11 08:50:10;;;;;;;48.40;31.90;;;;;;;5.96;100.00;102315.84;10555027;28;20511;-79
2021/11/11 08:55:15;;;;;;;46.22;28.77;;;;;;;5.90;100.00;102323.13;10583038;28;20055;-80
2021/11/11 09:00:19;;;;;;;47.35;29.95;;;;;;;5.85;100.00;102331.47;10582479;28;20056;-79
2021/11/11 09:05:24;;;;;;;52.13;30.05;;;;;;;5.87;100.00;102334.13;10563652;28;20056;-81
2021/11/11 09:10:26;;;;;;;51.65;30.50;;;;;;;5.84;100.00;102344.19;10548772;28;20044;-80
2021/11/11 09:15:29;;;;;;;48.72;28.50;;;;;;;5.92;100.00;102343.00;10560230;28;20054;-81
2021/11/11 09:20:32;;;;;;;54.45;30.10;;;;;;;5.96;100.00;102350.09;10550933;28;20058;-80
2021/11/11 09:25:35;;;;;;;46.10;29.25;;;;;;;6.09;100.00;102337.16;10543006;28;20521;-80
2021/11/11 09:30:38;;;;;;;47.17;31.15;;;;;;;6.15;100.00;102335.75;10568415;28;20051;-80
2021/11/11 09:35:39;;;;;;;44.42;29.10;;;;;;;6.27;100.00;102344.13;10579972;28;20047;-80
2021/11/11 09:40:41;;;;;;;46.03;29.13;;;;;;;6.30;100.00;102334.94;10552488;28;20059;-80
2021/11/11 09:46:00;;;;;;;59.83;32.15;;;;;;;6.34;100.00;102339.41;10538578;28;20503;-80
2021/11/11 09:51:05;;;;;;;58.20;29.95;;;;;;;6.38;100.00;102330.19;10538785;28;20051;-81
2021/11/11 10:01:27;;;;;;;51.00;28.80;;;;;;;6.56;100.00;102336.34;10541079;28;20070;-79
2021/11/11 10:06:31;;;;;;;44.33;29.65;;;;;;;6.54;100.00;102330.25;10551616;28;20094;-81
2021/11/11 10:11:37;;;;;;;45.38;30.08;;;;;;;6.61;100.00;102334.94;10564306;28;20044;-80
2021/11/11 10:17:01;;;;;;;47.90;28.95;;;;;;;6.70;100.00;102339.72;10538329;28;20048;-81
2021/11/11 10:22:20;;;;;;;52.78;31.30;;;;;;;6.66;100.00;102329.16;10551042;28;20044;-80
2021/11/11 10:27:47;;;;;;;51.38;30.23;;;;;;;6.76;100.00;102326.28;10539555;28;20052;-80
2021/11/11 10:32:49;;;;;;;51.00;30.50;;;;;;;6.84;100.00;102328.47;10537376;28;20051;-81
2021/11/11 10:37:58;;;;;;;51.83;31.70;;;;;;;6.82;100.00;102330.06;10551100;28;20052;-81
2021/11/11 10:43:04;;;;;;;54.22;30.58;;;;;;;7.07;100.00;102329.69;10550530;28;20066;-80
2021/11/11 10:48:10;;;;;;;52.22;30.92;;;;;;;7.01;100.00;102323.34;10537204;28;20151;-80
2021/11/11 10:53:14;;;;;;;47.20;32.10;;;;;;;7.09;100.00;102327.19;10561600;28;20055;-81
2021/11/11 10:58:18;;;;;;;52.92;31.15;;;;;;;7.17;100.00;102329.38;10551701;28;20052;-80
2021/11/11 11:03:27;;;;;;;53.85;31.05;;;;;;;7.41;100.00;102328.88;10564655;28;20295;-79
2021/11/11 11:08:41;;;;;;;46.42;30.52;;;;;;;7.39;100.00;102330.50;10561277;28;20052;-81
2021/11/11 11:13:54;;;;;;;54.58;33.25;;;;;;;7.42;100.00;102317.78;10549140;28;20050;-80
2021/11/11 11:19:02;;;;;;;51.80;31.77;;;;;;;7.48;100.00;102309.47;10536335;28;20102;-80
2021/11/11 11:24:09;;;;;;;56.08;33.60;;;;;;;7.42;100.00;102307.47;10549193;28;20059;-80
2021/11/11 11:29:24;;;;;;;44.97;32.38;;;;;;;7.67;100.00;102304.47;10562319;28;20134;-80
2021/11/11 11:34:28;;;;;;;58.45;33.90;;;;;;;7.74;100.00;102305.66;10554428;28;20046;-80
2021/11/11 11:39:35;;;;;;;48.47;32.30;;;;;;;7.78;100.00;102300.75;10558652;28;20052;-81
2021/11/11 11:44:41;;;;;;;49.47;30.58;;;;;;;7.79;100.00;102301.63;10562594;28;20487;-80
2021/11/11 11:49:49;;;;;;;54.88;32.28;;;;;;;7.96;100.00;102298.19;10545988;28;20085;-80
2021/11/11 11:55:00;;;;;;;51.13;33.50;;;;;;;7.91;100.00;102304.78;10551835;28;20136;-80
2021/11/11 12:00:20;;;;;;;55.20;33.53;;;;;;;7.97;100.00;102307.66;10539778;28;20060;-80
2021/11/11 12:05:40;;;;;;;54.05;32.45;;;;;;;7.98;100.00;102304.28;10566163;28;20059;-80
2021/11/11 12:38:44;;;;;;;50.17;32.00;;;;;;;8.11;100.00;102288.63;10569607;28;20048;-81
2021/11/11 12:44:12;;;;;;;44.88;31.30;;;;;;;8.15;100.00;102285.34;10555394;28;20048;-80
2021/11/11 12:49:31;;;;;;;44.03;31.10;;;;;;;8.30;100.00;102284.34;10556848;28;20051;-80
2021/11/11 12:54:33;;;;;;;46.25;30.33;;;;;;;8.32;100.00;102272.38;10541438;28;20434;-80
2021/11/11 12:59:36;;;;;;;49.50;31.42;;;;;;;8.46;100.00;102277.41;10553605;28;20174;-80
2021/11/11 13:04:47;;;;;;;49.40;31.35;;;;;;;8.50;100.00;102270.69;10555908;28;20056;-80
2021/11/11 13:10:16;;;;;;;42.92;29.45;;;;;;;8.50;100.00;102271.56;10570041;28;20556;-81
2021/11/11 13:15:18;;;;;;;46.00;30.73;;;;;;;8.57;100.00;102265.03;10584451;28;20509;-80
2021/11/11 13:20:33;;;;;;;50.10;29.33;;;;;;;8.64;100.00;102263.59;10567242;28;20047;-80
2021/11/11 16:27:56;;;;;;;54.13;33.65;;;;;;;8.77;100.00;102211.72;10512684;27;20047;-80
2021/11/11 16:32:57;;;;;;;50.40;32.10;;;;;;;8.73;100.00;102218.44;10565611;28;20059;-79
2021/11/11 16:37:59;;;;;;;49.72;33.17;;;;;;;8.67;100.00;102225.03;10570850;28;20051;-80
2021/11/11 16:43:01;;;;;;;50.70;32.65;;;;;;;8.67;100.00;102220.75;10582171;28;20097;-79
2021/11/11 16:48:03;;;;;;;50.38;31.98;;;;;;;8.64;100.00;102215.47;10572235;28;20051;-80
2021/11/11 16:53:05;;;;;;;54.25;33.30;;;;;;;8.59;100.00;102216.09;10555708;28;20218;-80
2021/11/11 16:58:07;;;;;;;51.53;30.50;;;;;;;8.59;100.00;102219.53;10574926;28;20056;-80
2021/11/11 17:03:09;;;;;;;50.92;30.52;;;;;;;8.54;100.00;102212.41;10553779;28;20451;-81
2021/11/11 17:08:12;;;;;;;46.13;31.23;;;;;;;8.49;100.00;102219.94;10547916;28;20186;-81
2021/11/11 17:13:14;;;;;;;48.78;32.40;;;;;;;8.44;100.00;102224.88;10547474;28;20496;-80
2021/11/11 17:18:17;;;;;;;56.38;36.03;;;;;;;8.39;100.00;102230.63;10555311;28;20044;-80
2021/11/11 17:23:21;;;;;;;50.20;31.92;;;;;;;8.39;100.00;102223.78;10524134;28;20458;-81
2021/11/11 17:28:33;;;;;;;47.25;32.50;;;;;;;8.41;100.00;102232.47;10570192;28;20050;-80
2021/11/11 17:33:37;;;;;;;47.38;32.55;;;;;;;8.40;100.00;102238.47;10554929;28;20131;-80
2021/11/11 17:38:40;;;;;;;46.38;32.28;;;;;;;8.35;100.00;102242.50;10570600;28;20043;-80
2021/11/11 17:43:46;;;;;;;47.90;33.38;;;;;;;8.37;100.00;102247.75;10539964;28;20047;-80
2021/11/11 17:48:52;;;;;;;61.60;35.70;;;;;;;8.30;100.00;102246.53;10557969;28;20083;-81
2021/11/11 17:53:57;;;;;;;57.28;39.03;;;;;;;8.31;100.00;102253.47;10576845;28;20050;-80
2021/11/11 17:58:59;;;;;;;60.00;37.00;;;;;;;8.28;100.00;102249.84;10566145;28;20067;-80
2021/11/11 18:04:01;;;;;;;57.45;36.75;;;;;;;8.24;100.00;102246.25;10559288;28;20427;-81
2021/11/11 18:09:10;;;;;;;51.63;35.30;;;;;;;8.24;100.00;102254.00;10559343;28;20056;-80
2021/11/11 18:14:17;;;;;;;52.80;33.20;;;;;;;8.24;100.00;102256.56;10569453;28;20172;-81
2021/11/11 18:19:19;;;;;;;53.00;36.33;;;;;;;8.24;100.00;102251.41;10566881;28;20058;-80
2021/11/11 18:24:22;;;;;;;50.08;33.35;;;;;;;8.23;100.00;102252.22;10534875;28;20052;-82
2021/11/11 18:29:32;;;;;;;56.42;34.65;;;;;;;8.19;100.00;102248.63;10537295;28;20048;-81
2021/11/11 18:34:36;;;;;;;64.13;37.47;;;;;;;8.19;100.00;102251.19;10559593;28;20042;-82
2021/11/11 18:39:39;;;;;;;54.17;33.75;;;;;;;8.18;100.00;102261.44;10557132;28;20478;-81
2021/11/11 18:44:44;;;;;;;51.70;34.65;;;;;;;8.16;100.00;102253.59;10566593;28;20072;-82
2021/11/11 18:49:49;;;;;;;51.83;35.30;;;;;;;8.14;100.00;102255.25;10540341;28;20044;-82
2021/11/11 18:54:52;;;;;;;52.28;34.45;;;;;;;8.13;100.00;102258.63;10552289;28;20450;-82
2021/11/11 18:59:57;;;;;;;57.60;35.53;;;;;;;8.13;100.00;102262.91;10554502;28;20060;-82
2021/11/11 19:05:07;;;;;;;48.72;33.70;;;;;;;8.09;100.00;102261.88;10541897;28;20040;-83
2021/11/11 19:10:23;;;;;;;53.30;33.42;;;;;;;8.08;100.00;102251.50;10547057;28;20072;-81
2021/11/11 19:15:26;;;;;;;53.90;33.85;;;;;;;8.09;100.00;102255.84;10543498;28;20122;-81
2021/11/11 19:20:29;;;;;;;49.58;32.58;;;;;;;8.09;100.00;102256.72;10554642;28;20565;-82
2021/11/11 19:25:31;;;;;;;55.45;34.13;;;;;;;8.07;100.00;102260.91;10564414;28;20055;-81
2021/11/11 19:30:33;;;;;;;48.72;32.72;;;;;;;8.07;100.00;102254.88;10577864;28;20070;-82
2021/11/11 19:35:49;;;;;;;48.55;32.58;;;;;;;8.06;100.00;102253.13;10554271;28;20058;-82
2021/11/11 20:02:08;;;;;;;51.60;31.85;;;;;;;8.03;100.00;102228.06;10549746;28;20054;-81
2021/11/11 20:39:09;;;;;;;54.53;34.40;;;;;;;7.94;100.00;102222.47;10566837;28;20138;-80
2021/11/11 20:54:43;;;;;;;53.70;34.72;;;;;;;7.94;100.00;102228.53;10572683;28;20078;-79
2021/11/11 21:05:09;;;;;;;49.65;32.58;;;;;;;7.88;100.00;102210.19;10575883;28;20052;-81
2021/11/11 21:10:33;;;;;;;50.85;32.90;;;;;;;7.89;100.00;102219.69;10549887;28;20411;-81
2021/11/11 21:15:54;;;;;;;50.08;33.58;;;;;;;7.86;100.00;102222.13;10576991;28;20051;-81
2021/11/11 21:20:58;;;;;;;53.05;32.80;;;;;;;7.87;100.00;102218.72;10558419;28;20048;-80
2021/11/11 21:26:02;;;;;;;59.55;35.45;;;;;;;7.86;100.00;102218.66;10571454;28;20104;-81
2021/11/11 21:31:04;;;;;;;57.72;34.35;;;;;;;7.87;100.00;102204.97;10545373;28;20056;-80
2021/11/11 21:36:35;;;;;;;53.08;34.60;;;;;;;7.84;100.00;102197.09;10558876;28;20047;-80
2021/11/11 21:41:39;;;;;;;50.03;32.95;;;;;;;7.85;100.00;102193.72;10559839;28;20047;-82
2021/11/11 21:46:42;;;;;;;57.75;36.60;;;;;;;7.85;100.00;102191.13;10557314;28;20048;-81
2021/11/11 21:51:45;;;;;;;54.03;35.28;;;;;;;7.86;100.00;102188.63;10555120;28;20054;-80
2021/11/11 21:56:54;;;;;;;57.33;38.25;;;;;;;7.81;100.00;102191.78;10554977;28;20070;-80
2021/11/11 22:02:24;;;;;;;61.80;36.17;;;;;;;7.82;100.00;102188.41;10561644;28;20050;-81
2021/11/11 22:23:27;;;;;;;61.80;36.28;;;;;;;7.79;100.00;102173.69;10565958;28;20048;-80
2021/11/11 22:28:46;;;;;;;54.90;33.80;;;;;;;7.81;100.00;102168.59;10564230;28;20058;-80
2021/11/11 22:33:53;;;;;;;58.90;37.13;;;;;;;7.81;100.00;102158.31;10541538;28;20048;-81
2021/11/11 22:38:54;;;;;;;76.38;46.05;;;;;;;7.79;100.00;102154.78;10522055;28;20047;-80
2021/11/11 22:43:56;;;;;;;72.05;45.50;;;;;;;7.77;100.00;102149.56;10549288;28;20147;-80
2021/11/11 22:48:58;;;;;;;57.72;34.85;;;;;;;7.77;100.00;102152.16;10545914;28;20060;-82
2021/11/11 22:53:59;;;;;;;64.00;38.72;;;;;;;7.79;100.00;102140.22;10567324;28;20062;-81
2021/11/11 23:04:10;;;;;;;65.53;39.22;;;;;;;7.76;100.00;102134.91;10568657;28;20043;-80
2021/11/11 23:14:27;;;;;;;60.50;37.20;;;;;;;7.71;100.00;102144.09;10548505;28;20471;-81
2021/11/11 23:24:57;;;;;;;65.47;37.47;;;;;;;7.77;100.00;102146.06;10566434;28;20048;-81
2021/11/11 23:35:19;;;;;;;59.63;36.67;;;;;;;7.75;100.00;102138.28;10559422;28;20051;-81
2021/11/11 23:40:21;;;;;;;62.00;38.13;;;;;;;7.74;100.00;102141.69;10567532;28;20044;-81
2021/11/11 23:45:23;;;;;;;64.25;39.72;;;;;;;7.75;100.00;102150.28;10563822;28;20039;-81
